createdAt,value
2022-09-20T00:01:51.411Z,95.20
2022-09-20T00:04:19.319Z,95.10
2022-09-20T00:06:46.299Z,95.20
2022-09-20T00:09:16.260Z,95.50
2022-09-20T00:11:46.336Z,95.70
2022-09-20T00:14:15.511Z,95.90
2022-09-20T00:16:43.527Z,96.20
2022-09-20T00:19:17.934Z,96.40
2022-09-20T00:21:47.943Z,96.50
2022-09-20T00:24:14.859Z,96.60
2022-09-20T00:26:42.114Z,96.60
2022-09-20T00:29:09.116Z,96.60
2022-09-20T00:31:40.290Z,96.60
2022-09-20T00:34:25.904Z,96.50
2022-09-20T00:36:54.913Z,96.50
2022-09-20T00:39:21.824Z,96.60
2022-09-20T00:41:49.838Z,97.10
2022-09-20T00:44:50.135Z,96.70
2022-09-20T00:47:28.130Z,96.70
2022-09-20T00:50:05.877Z,97.00
2022-09-20T00:52:36.872Z,96.70
2022-09-20T00:55:07.837Z,96.80
2022-09-20T00:57:38.986Z,96.80
2022-09-20T01:00:10.203Z,96.70
2022-09-20T01:02:43.170Z,96.60
2022-09-20T01:05:14.428Z,96.70
2022-09-20T01:07:44.505Z,96.60
2022-09-20T01:10:11.508Z,96.60
2022-09-20T01:12:40.974Z,96.60
2022-09-20T01:15:09.799Z,96.80
2022-09-20T01:17:43.067Z,96.90
2022-09-20T01:20:25.889Z,97.40
2022-09-20T01:23:16.176Z,97.60
2022-09-20T01:26:11.011Z,97.50
2022-09-20T01:28:44.146Z,97.50
2022-09-20T01:31:26.796Z,97.50
2022-09-20T01:33:57.028Z,97.60
2022-09-20T01:36:51.840Z,97.60
2022-09-20T01:39:40.560Z,97.80
2022-09-20T01:42:14.985Z,98.00
2022-09-20T01:45:17.259Z,98.10
2022-09-20T01:48:06.173Z,98.20
2022-09-20T01:51:10.573Z,98.00
2022-09-20T01:53:55.575Z,97.80
2022-09-20T01:57:02.072Z,97.50
2022-09-20T01:59:38.168Z,97.30
2022-09-20T02:02:33.128Z,97.30
2022-09-20T02:05:45.390Z,97.40
2022-09-20T02:08:27.587Z,97.60
2022-09-20T02:11:12.532Z,97.60
2022-09-20T02:14:00.550Z,97.70
2022-09-20T02:16:50.569Z,97.60
2022-09-20T02:19:59.725Z,97.60
2022-09-20T02:23:04.312Z,97.60
2022-09-20T02:26:03.147Z,97.60
2022-09-20T02:28:55.361Z,97.60
2022-09-20T02:31:56.214Z,97.60
2022-09-20T02:34:49.489Z,97.60
2022-09-20T02:37:18.793Z,97.70
2022-09-20T02:39:57.844Z,97.80
2022-09-20T02:42:48.907Z,98.00
2022-09-20T02:45:42.449Z,98.10
2022-09-20T02:48:22.087Z,98.10
2022-09-20T02:51:18.452Z,98.10
2022-09-20T02:54:04.095Z,98.20
2022-09-20T02:56:54.737Z,98.10
2022-09-20T02:59:52.633Z,98.10
2022-09-20T03:02:26.636Z,98.10
2022-09-20T03:05:32.848Z,98.20
2022-09-20T03:08:18.650Z,98.30
2022-09-20T03:11:11.085Z,98.30
2022-09-20T03:14:07.538Z,98.20
2022-09-20T03:17:20.029Z,98.20
2022-09-20T03:20:11.163Z,98.20
2022-09-20T03:22:51.943Z,98.30
2022-09-20T03:25:50.715Z,98.40
2022-09-20T03:28:48.116Z,98.40
2022-09-20T03:31:39.432Z,98.40
2022-09-20T03:34:40.679Z,98.30
2022-09-20T03:37:41.962Z,98.40
2022-09-20T03:40:17.839Z,98.20
2022-09-20T03:42:51.538Z,98.20
2022-09-20T03:45:45.004Z,98.20
2022-09-20T03:48:12.979Z,98.10
2022-09-20T03:50:58.769Z,98.10
2022-09-20T03:53:43.933Z,98.00
2022-09-20T03:56:26.305Z,98.00
2022-09-20T03:59:20.071Z,97.90
2022-09-20T04:01:52.944Z,97.90
2022-09-20T04:04:47.477Z,97.90
2022-09-20T04:07:47.806Z,98.00
2022-09-20T04:10:26.811Z,98.10
2022-09-20T04:13:15.591Z,98.10
2022-09-20T04:15:53.545Z,98.10
2022-09-20T04:18:56.682Z,98.20
2022-09-20T04:21:43.617Z,98.30
2022-09-20T04:24:33.378Z,98.30
2022-09-20T04:27:12.267Z,98.50
2022-09-20T04:29:55.598Z,98.50
2022-09-20T04:32:56.113Z,98.50
2022-09-20T04:36:16.811Z,98.50
2022-09-20T04:38:45.503Z,98.60
2022-09-20T04:41:21.738Z,98.60
2022-09-20T04:44:13.563Z,98.50
2022-09-20T04:47:09.656Z,98.30
2022-09-20T04:49:45.673Z,98.10
2022-09-20T04:52:50.206Z,98.40
2022-09-20T04:55:55.673Z,98.00
2022-09-20T04:58:48.305Z,97.70
2022-09-20T05:01:27.434Z,97.60
2022-09-20T05:04:28.346Z,97.60
2022-09-20T05:07:07.403Z,97.50
2022-09-20T05:09:36.367Z,97.20
2022-09-20T05:12:30.690Z,96.70
2022-09-20T05:15:14.028Z,96.70
2022-09-20T05:18:12.871Z,96.60
2022-09-20T05:20:50.774Z,96.60
2022-09-20T05:23:49.635Z,96.60
2022-09-20T05:26:38.965Z,96.60
2022-09-20T05:29:17.780Z,96.50
2022-09-20T05:32:12.032Z,96.50
2022-09-20T05:34:51.197Z,96.40
2022-09-20T05:37:56.059Z,96.30
2022-09-20T05:40:52.312Z,96.30
2022-09-20T05:43:30.678Z,96.30
2022-09-20T05:46:35.151Z,96.30
2022-09-20T05:49:25.018Z,96.40
2022-09-20T05:52:07.095Z,96.40
2022-09-20T05:55:02.992Z,96.40
2022-09-20T05:57:35.344Z,96.40
2022-09-20T06:00:08.499Z,96.30
2022-09-20T06:02:51.632Z,96.30
2022-09-20T06:06:01.655Z,96.40
2022-09-20T06:08:50.208Z,96.40
2022-09-20T06:11:54.706Z,96.50
2022-09-20T06:15:07.603Z,96.70
2022-09-20T06:17:59.918Z,96.80
2022-09-20T06:20:49.362Z,96.90
2022-09-20T06:23:18.553Z,97.10
2022-09-20T06:25:57.799Z,97.00
2022-09-20T06:28:33.351Z,97.00
2022-09-20T06:31:07.426Z,96.90
2022-09-20T06:33:40.340Z,96.80
2022-09-20T06:36:31.305Z,96.80
2022-09-20T06:39:56.110Z,96.70
2022-09-20T06:42:26.997Z,96.70
2022-09-20T06:44:54.828Z,96.50
2022-09-20T06:47:26.264Z,96.30
2022-09-20T06:49:53.424Z,96.30
2022-09-20T06:52:30.038Z,96.20
2022-09-20T06:54:58.077Z,96.10
2022-09-20T06:57:36.561Z,96.00
2022-09-20T07:00:05.140Z,95.90
2022-09-20T07:02:32.136Z,95.90
2022-09-20T07:05:02.163Z,96.00
2022-09-20T07:07:32.101Z,94.80
2022-09-20T07:10:03.326Z,94.20
2022-09-20T07:12:36.671Z,94.30
2022-09-20T07:15:06.407Z,93.20
2022-09-20T07:17:34.711Z,91.10
2022-09-20T07:20:04.940Z,88.30
2022-09-20T07:22:37.256Z,85.60
2022-09-20T07:25:07.834Z,82.90
2022-09-20T07:27:37.809Z,80.20
2022-09-20T07:30:07.171Z,77.50
2022-09-20T07:32:35.086Z,75.80
2022-09-20T07:35:03.315Z,73.70
2022-09-20T07:37:36.336Z,72.50
2022-09-20T07:40:05.591Z,71.70
2022-09-20T07:42:33.566Z,71.50
2022-09-20T07:45:03.823Z,72.80
2022-09-20T07:47:35.648Z,72.70
2022-09-20T07:50:03.443Z,73.10
2022-09-20T07:52:33.557Z,74.90
2022-09-20T07:55:00.704Z,77.50
2022-09-20T07:57:35.305Z,79.80
2022-09-20T08:00:07.154Z,82.40
2022-09-20T08:02:37.276Z,84.20
2022-09-20T08:05:06.817Z,85.70
2022-09-20T08:07:34.051Z,89.00
2022-09-20T08:10:07.756Z,90.50
2022-09-20T08:15:23.155Z,91.60
2022-09-20T08:17:50.110Z,92.00
2022-09-20T08:20:17.088Z,92.30
2022-09-20T08:23:00.884Z,93.10
2022-09-20T08:25:38.419Z,92.50
2022-09-20T08:28:08.496Z,91.30
2022-09-20T08:30:36.400Z,91.00
2022-09-20T08:33:04.509Z,90.80
2022-09-20T08:35:38.602Z,91.30
2022-09-20T08:40:59.877Z,91.50
2022-09-20T08:43:36.103Z,91.10
2022-09-20T08:46:06.164Z,90.50
2022-09-20T08:48:36.130Z,90.00
2022-09-20T08:51:08.366Z,89.40
2022-09-20T08:53:35.344Z,89.20
2022-09-20T08:56:04.805Z,89.60
2022-09-20T08:58:36.424Z,89.90
2022-09-20T09:01:06.748Z,90.00
2022-09-20T09:03:40.022Z,90.10
2022-09-20T09:06:18.347Z,90.20
2022-09-20T09:09:06.369Z,90.70
2022-09-20T09:11:34.608Z,92.20
2022-09-20T09:14:27.061Z,93.30
2022-09-20T09:17:00.967Z,93.90
2022-09-20T09:19:42.780Z,94.10
2022-09-20T09:22:18.321Z,94.30
2022-09-20T09:25:28.778Z,94.00
2022-09-20T09:28:16.018Z,94.50
2022-09-20T09:30:50.483Z,93.70
2022-09-20T09:33:25.444Z,93.50
2022-09-20T09:36:10.815Z,93.30
2022-09-20T09:38:40.484Z,92.70
2022-09-20T09:41:33.408Z,92.70
2022-09-20T09:44:01.682Z,92.90
2022-09-20T09:46:34.207Z,93.50
2022-09-20T09:49:22.811Z,93.60
2022-09-20T09:52:15.822Z,93.50
2022-09-20T09:54:52.190Z,93.60
2022-09-20T09:57:40.842Z,93.10
2022-09-20T10:00:27.220Z,92.50
2022-09-20T10:03:16.167Z,92.00
2022-09-20T10:06:09.646Z,91.50
2022-09-20T10:08:48.965Z,91.70
2022-09-20T10:11:48.594Z,91.90
2022-09-20T10:14:24.389Z,91.90
2022-09-20T10:17:21.374Z,91.60
2022-09-20T10:20:21.614Z,91.00
2022-09-20T10:25:59.436Z,89.20
2022-09-20T10:28:48.424Z,84.30
2022-09-20T10:31:36.945Z,81.50
2022-09-20T10:34:35.542Z,81.30
2022-09-20T10:37:02.570Z,82.50
2022-09-20T10:39:30.487Z,84.30
2022-09-20T10:42:54.864Z,85.50
2022-09-20T10:48:51.705Z,87.40
2022-09-20T10:51:39.439Z,87.60
2022-09-20T10:54:32.523Z,87.60
2022-09-20T10:57:46.926Z,87.90
2022-09-20T11:00:25.663Z,88.20
2022-09-20T11:03:29.573Z,88.20
2022-09-20T11:06:12.897Z,88.10
2022-09-20T11:08:43.137Z,89.00
2022-09-20T11:11:21.651Z,89.10
2022-09-20T11:13:51.589Z,89.90
2022-09-20T11:16:31.455Z,91.50
2022-09-20T11:19:28.604Z,92.70
2022-09-20T11:22:19.496Z,94.10
2022-09-20T11:24:49.444Z,95.40
2022-09-20T11:27:32.963Z,96.00
2022-09-20T11:30:15.592Z,96.70
2022-09-20T11:32:53.660Z,97.30
2022-09-20T11:35:38.824Z,97.70
2022-09-20T11:38:25.335Z,98.00
2022-09-20T11:41:35.615Z,98.50
2022-09-20T11:44:07.890Z,98.70
2022-09-20T11:46:53.451Z,98.90
2022-09-20T11:49:41.468Z,98.90
2022-09-20T11:52:32.623Z,99.00
2022-09-20T11:55:13.894Z,99.00
2022-09-20T11:57:41.939Z,99.00
2022-09-20T12:00:10.390Z,98.80
2022-09-20T12:02:49.079Z,98.50
2022-09-20T12:05:35.397Z,98.60
2022-09-20T12:08:19.506Z,98.50
2022-09-20T12:10:58.304Z,98.60
2022-09-20T12:13:27.951Z,99.10
2022-09-20T12:16:35.081Z,99.10
2022-09-20T12:19:08.055Z,99.20
2022-09-20T12:21:59.906Z,99.30
2022-09-20T12:24:45.087Z,99.00
2022-09-20T12:27:43.043Z,98.60
2022-09-20T12:30:23.032Z,98.60
2022-09-20T12:32:58.707Z,98.20
2022-09-20T12:35:58.076Z,98.20
2022-09-20T12:38:31.297Z,97.90
2022-09-20T12:41:27.779Z,97.90
2022-09-20T12:44:22.886Z,97.90
2022-09-20T12:47:17.474Z,97.80
2022-09-20T12:50:07.057Z,97.70
2022-09-20T12:52:53.592Z,97.40
2022-09-20T12:55:30.027Z,97.30
2022-09-20T12:58:14.275Z,97.10
2022-09-20T13:00:42.771Z,97.00
2022-09-20T13:03:32.125Z,95.90
2022-09-20T13:06:12.083Z,95.60
2022-09-20T13:08:54.194Z,94.80
2022-09-20T13:11:46.055Z,94.10
2022-09-20T13:14:25.357Z,94.00
2022-09-20T13:17:01.604Z,93.90
2022-09-20T13:19:41.907Z,93.00
2022-09-20T13:22:19.172Z,92.70
2022-09-20T13:24:48.954Z,92.60
2022-09-20T13:27:25.887Z,92.30
2022-09-20T13:30:08.864Z,92.20
2022-09-20T13:32:41.802Z,91.60
2022-09-20T13:35:32.609Z,91.30
2022-09-20T13:38:07.057Z,91.10
2022-09-20T13:40:39.494Z,91.10
2022-09-20T13:43:24.679Z,91.00
2022-09-20T13:45:56.612Z,90.50
2022-09-20T13:48:30.251Z,90.30
2022-09-20T13:50:58.576Z,90.50
2022-09-20T13:53:41.614Z,90.10
2022-09-20T13:56:18.472Z,90.40
2022-09-20T13:58:49.012Z,90.40
2022-09-20T14:01:34.727Z,90.80
2022-09-20T14:04:14.736Z,91.10
2022-09-20T14:06:43.107Z,91.30
2022-09-20T14:09:23.737Z,91.40
2022-09-20T14:11:54.711Z,91.40
2022-09-20T14:14:24.367Z,91.30
2022-09-20T14:16:53.348Z,91.50
2022-09-20T14:19:23.709Z,91.40
2022-09-20T14:21:51.945Z,91.40
2022-09-20T14:24:59.693Z,91.40
2022-09-20T14:27:29.571Z,91.20
2022-09-20T14:29:59.575Z,91.10
2022-09-20T14:32:38.238Z,91.00
2022-09-20T14:35:05.326Z,91.20
2022-09-20T14:37:36.547Z,91.40
2022-09-20T14:40:16.936Z,91.40
2022-09-20T14:42:47.125Z,91.50
2022-09-20T14:45:42.433Z,91.40
2022-09-20T14:48:11.001Z,91.40
2022-09-20T14:50:44.677Z,91.20
2022-09-20T14:53:19.698Z,91.30
2022-09-20T14:56:05.014Z,91.20
2022-09-20T14:58:33.121Z,91.30
2022-09-20T15:01:23.320Z,91.00
2022-09-20T15:03:51.176Z,91.10
2022-09-20T15:06:19.156Z,91.10
2022-09-20T15:08:46.950Z,91.10
2022-09-20T15:11:20.831Z,91.10
2022-09-20T15:13:51.199Z,91.00
2022-09-20T15:16:20.553Z,90.90
2022-09-20T15:18:47.607Z,90.90
2022-09-20T15:21:14.712Z,91.00
2022-09-20T15:23:43.871Z,91.10
2022-09-20T15:26:13.354Z,91.30
2022-09-20T15:28:40.468Z,91.30
2022-09-20T15:31:07.464Z,91.40
2022-09-20T15:33:35.417Z,91.50
2022-09-20T15:36:03.193Z,91.50
2022-09-20T15:38:30.297Z,91.50
2022-09-20T15:41:01.100Z,91.70
2022-09-20T15:43:31.287Z,91.90
2022-09-20T15:46:16.375Z,92.10
2022-09-20T15:48:45.586Z,92.10
2022-09-20T15:51:15.977Z,92.00
2022-09-20T15:53:49.458Z,92.20
2022-09-20T15:56:21.377Z,92.30
2022-09-20T15:58:59.119Z,92.40
2022-09-20T16:01:28.626Z,92.50
2022-09-20T16:04:04.782Z,92.50
2022-09-20T16:06:32.658Z,92.60
2022-09-20T16:08:59.674Z,92.60
2022-09-20T16:11:28.096Z,92.70
2022-09-20T16:13:59.182Z,92.80
2022-09-20T16:16:32.446Z,92.80
2022-09-20T16:19:23.752Z,92.90
2022-09-20T16:21:58.907Z,92.90
2022-09-20T16:24:34.343Z,93.00
2022-09-20T16:27:04.990Z,93.10
2022-09-20T16:29:34.402Z,93.20
2022-09-20T16:32:04.196Z,93.30
2022-09-20T16:34:35.222Z,93.30
2022-09-20T16:37:07.539Z,93.40
2022-09-20T16:39:35.488Z,93.40
2022-09-20T16:42:05.104Z,93.40
2022-09-20T16:44:39.071Z,93.50
2022-09-20T16:47:22.422Z,93.60
2022-09-20T16:49:50.366Z,93.70
2022-09-20T16:52:19.486Z,93.80
2022-09-20T16:54:46.734Z,93.80
2022-09-20T16:57:16.778Z,93.90
2022-09-20T16:59:48.031Z,94.00
2022-09-20T17:02:15.977Z,94.10
2022-09-20T17:04:46.000Z,94.20
2022-09-20T17:07:16.140Z,94.40
2022-09-20T17:09:46.167Z,94.60
2022-09-20T17:12:15.227Z,94.70
2022-09-20T17:14:43.745Z,94.80
2022-09-20T17:17:10.751Z,94.80
2022-09-20T17:19:38.543Z,94.80
2022-09-20T17:22:07.445Z,94.80
2022-09-20T17:24:34.491Z,94.80
2022-09-20T17:27:04.174Z,94.70
2022-09-20T17:29:34.390Z,94.40
2022-09-20T17:32:03.500Z,94.30
2022-09-20T17:34:34.240Z,93.80
2022-09-20T17:37:04.886Z,93.70
2022-09-20T17:39:34.869Z,93.60
2022-09-20T17:42:05.137Z,93.60
2022-09-20T17:44:38.186Z,93.80
2022-09-20T17:47:05.308Z,94.40
2022-09-20T17:49:34.744Z,94.40
2022-09-20T17:52:02.063Z,94.00
2022-09-20T17:54:29.061Z,93.90
2022-09-20T17:56:56.352Z,93.90
2022-09-20T17:59:24.636Z,94.30
2022-09-20T18:01:52.407Z,94.50
2022-09-20T18:04:21.579Z,94.70
2022-09-20T18:06:50.894Z,94.50
2022-09-20T18:09:23.422Z,94.20
2022-09-20T18:11:53.139Z,94.30
2022-09-20T18:14:23.386Z,94.60
2022-09-20T18:16:56.056Z,94.50
2022-09-20T18:19:23.114Z,94.30
2022-09-20T18:21:50.780Z,94.20
2022-09-20T18:24:17.889Z,94.60
2022-09-20T18:26:45.191Z,94.40
2022-09-20T18:29:14.757Z,94.10
2022-09-20T18:31:46.303Z,94.30
2022-09-20T18:34:18.330Z,94.30
2022-09-20T18:36:55.019Z,94.40
2022-09-20T18:39:30.025Z,94.80
2022-09-20T18:42:00.055Z,94.90
2022-09-20T18:44:36.475Z,95.00
2022-09-20T18:47:04.970Z,94.90
2022-09-20T18:49:32.321Z,94.90
2022-09-20T18:51:59.256Z,94.90
2022-09-20T18:54:27.025Z,94.90
2022-09-20T18:56:54.338Z,95.10
2022-09-20T18:59:23.572Z,95.10
2022-09-20T19:02:25.955Z,95.20
2022-09-20T19:05:33.147Z,95.30
2022-09-20T19:08:34.214Z,95.90
2022-09-20T19:11:17.849Z,96.20
2022-09-20T19:13:53.404Z,95.80
2022-09-20T19:16:43.748Z,95.50
2022-09-20T19:19:35.078Z,95.60
2022-09-20T19:22:21.687Z,95.60
2022-09-20T19:25:12.617Z,95.60
2022-09-20T19:27:39.904Z,95.30
2022-09-20T19:30:07.612Z,95.30
2022-09-20T19:32:34.984Z,95.40
2022-09-20T19:35:02.129Z,95.40
2022-09-20T19:37:54.182Z,95.50
2022-09-20T19:40:39.929Z,95.60
2022-09-20T19:43:25.468Z,95.50
2022-09-20T19:46:01.222Z,95.60
2022-09-20T19:48:47.893Z,95.70
2022-09-20T19:51:17.143Z,95.80
2022-09-20T19:53:44.267Z,95.70
2022-09-20T19:56:27.790Z,95.40
2022-09-20T19:58:56.369Z,95.50
2022-09-20T20:01:25.117Z,95.60
2022-09-20T20:03:55.951Z,95.80
2022-09-20T20:06:38.472Z,96.00
2022-09-20T20:09:41.592Z,96.10
2022-09-20T20:12:14.939Z,96.20
2022-09-20T20:15:11.852Z,96.10
2022-09-20T20:17:38.720Z,96.10
2022-09-20T20:20:20.686Z,96.10
2022-09-20T20:23:02.981Z,96.20
2022-09-20T20:25:41.599Z,96.20
2022-09-20T20:28:09.549Z,96.10
2022-09-20T20:30:37.167Z,96.20
2022-09-20T20:33:06.017Z,96.20
2022-09-20T20:35:33.015Z,96.20
2022-09-20T20:37:59.907Z,96.30
2022-09-20T20:40:27.325Z,96.30
2022-09-20T20:43:02.302Z,96.20
2022-09-20T20:45:30.044Z,96.10
2022-09-20T20:47:58.683Z,96.00
2022-09-20T20:50:27.233Z,96.00
2022-09-20T20:52:55.018Z,96.00
2022-09-20T20:55:22.393Z,96.00
2022-09-20T20:57:59.722Z,96.00
2022-09-20T21:00:27.578Z,96.10
2022-09-20T21:02:59.021Z,96.20
2022-09-20T21:05:30.120Z,96.20
2022-09-20T21:07:58.625Z,96.50
2022-09-20T21:10:25.481Z,96.40
2022-09-20T21:12:56.446Z,96.50
2022-09-20T21:15:23.322Z,96.50
2022-09-20T21:17:53.792Z,97.00
2022-09-20T21:20:22.254Z,96.70
2022-09-20T21:22:49.171Z,97.20
2022-09-20T21:25:16.160Z,97.00
2022-09-20T21:27:43.065Z,99.10
2022-09-20T21:30:10.501Z,99.90
2022-09-20T21:32:37.512Z,99.90
2022-09-20T21:35:04.720Z,99.90
2022-09-20T21:37:31.580Z,99.90
2022-09-20T21:39:58.480Z,99.90
2022-09-20T21:42:27.344Z,99.90
2022-09-20T21:44:54.268Z,99.90
2022-09-20T21:47:22.433Z,99.90
2022-09-20T21:49:49.304Z,99.90
2022-09-20T21:52:16.174Z,99.90
2022-09-20T21:54:43.162Z,99.90
2022-09-20T21:57:13.767Z,99.80
2022-09-20T21:59:40.973Z,99.80
2022-09-20T22:02:09.190Z,99.70
2022-09-20T22:04:36.286Z,99.70
2022-09-20T22:07:04.503Z,99.60
2022-09-20T22:09:31.493Z,99.60
2022-09-20T22:11:58.487Z,99.50
2022-09-20T22:14:25.443Z,99.40
2022-09-20T22:16:52.719Z,99.40
2022-09-20T22:19:20.399Z,99.30
2022-09-20T22:21:49.917Z,99.30
2022-09-20T22:24:18.583Z,99.30
2022-09-20T22:26:50.853Z,99.40
2022-09-20T22:29:18.586Z,99.50
2022-09-20T22:31:47.364Z,99.60
2022-09-20T22:34:17.543Z,99.70
2022-09-20T22:36:45.454Z,99.90
2022-09-20T22:39:13.617Z,99.90
2022-09-20T22:41:42.782Z,99.90
2022-09-20T22:44:10.451Z,99.90
2022-09-20T22:46:38.326Z,99.90
2022-09-20T22:49:06.728Z,99.90
2022-09-20T22:51:34.146Z,99.90
2022-09-20T22:54:05.764Z,99.90
2022-09-20T22:56:33.326Z,99.90
2022-09-20T22:59:05.162Z,99.90
2022-09-20T23:01:43.954Z,99.90
2022-09-20T23:04:14.196Z,99.90
2022-09-20T23:06:44.338Z,99.90
2022-09-20T23:09:13.407Z,99.90
2022-09-20T23:11:42.704Z,99.90
2022-09-20T23:14:12.191Z,99.90
2022-09-20T23:16:39.762Z,99.90
2022-09-20T23:19:08.049Z,99.90
2022-09-20T23:21:36.541Z,99.90
2022-09-20T23:24:05.989Z,99.90
2022-09-20T23:26:35.160Z,99.90
2022-09-20T23:29:07.687Z,99.90
2022-09-20T23:31:37.159Z,99.90
2022-09-20T23:34:06.617Z,99.90
2022-09-20T23:36:36.286Z,99.90
2022-09-20T23:39:05.816Z,99.90
2022-09-20T23:41:33.395Z,99.90
2022-09-20T23:44:00.532Z,99.90
2022-09-20T23:46:27.762Z,99.90
2022-09-20T23:48:55.074Z,99.90
2022-09-20T23:51:24.622Z,99.90
2022-09-20T23:53:52.917Z,99.90
2022-09-20T23:56:20.914Z,99.90
2022-09-20T23:58:48.813Z,99.90
